• Join FlightAware (Why Join?)
  • Login
  • US Flag GB Flag 
14:02 EDT


 

Airport Tracker/Info


-or-


 

Live Flight TrackerFlight Track Log ✈ N1926A ✈ 01-May-2013 ✈ 41A - KMGM

Flight Track Log - Related Links

Times and Time Zones

All times are in EDT time to prevent confusion due to time zone crossing. See the N1926A flight status page for this flight to view local times or setup timezone preferences in your user account.

Time Position Orientation Groundspeed Altitude Reporting Facility
EDT Latitude Longitude Course Direction KTS MPH feet Rate Location/Type
16:53 32.3969 -86.1215 246° West  Level FlightAware Approximate
16:54 32.3804 -86.1644 245° Southwest  Level FlightAware Approximate
16:55 32.3667 -86.2079 270° West  Level FlightAware Approximate
16:56 32.3479 -86.2479 235° Southwest  Level FlightAware Approximate
16:57 32.3249 -86.2863 235° Southwest  Level FlightAware Approximate
16:58 32.3108 -86.3294 257° West  Level FlightAware Approximate
16:59 32.3016 -86.3751 257° West  Level FlightAware Approximate
17:00 32.3000 -86.3833 257° West  Level FlightAware Approximate
17:01 32.3006 -86.3940 257° West  Level Estimated
17:02 32.3006 -86.3940 257° West  Level Estimated
17:03 32.3006 -86.3940 257° West  Level Estimated
17:04 32.3006 -86.3940 257° West  Level Estimated
17:05 32.3006 -86.3940 257° West  Level Estimated
17:06 32.3006 -86.3940 257° West  Level Estimated
17:07 32.3006 -86.3940 257° West  Level Estimated
17:08 32.3006 -86.3940 257° West  Level Estimated
17:09 32.3006 -86.3940 257° West  Level Estimated
17:10 32.3006 -86.3940 257° West  Level Estimated
17:11 32.3006 -86.3940 257° West  Level Estimated
17:12 32.3006 -86.3940 257° West  Level Estimated
17:13 32.3006 -86.3940 257° West  Level Estimated
17:14 32.3006 -86.3940 257° West  Level Estimated
17:15 32.3006 -86.3940 257° West  Level Estimated